地図

経路データ

SID SEASON NUMBER BASIN SUBBASIN NAME ISO_TIME NATURE LAT LON WMO_WIND WMO_PRES WMO_AGENCY TRACK_TYPE DIST2LAND LANDFALL IFLAG USA_AGENCY USA_ATCF_ID USA_LAT USA_LON USA_RECORD USA_STATUS USA_WIND USA_PRES USA_SSHS USA_R34_NE USA_R34_SE USA_R34_SW USA_R34_NW USA_R50_NE USA_R50_SE USA_R50_SW USA_R50_NW USA_R64_NE USA_R64_SE USA_R64_SW USA_R64_NW USA_POCI USA_ROCI USA_RMW USA_EYE TOKYO_LAT TOKYO_LON TOKYO_GRADE TOKYO_WIND TOKYO_PRES TOKYO_R50_DIR TOKYO_R50_LONG TOKYO_R50_SHORT TOKYO_R30_DIR TOKYO_R30_LONG TOKYO_R30_SHORT TOKYO_LAND CMA_LAT CMA_LON CMA_CAT CMA_WIND CMA_PRES HKO_LAT HKO_LON HKO_CAT HKO_WIND HKO_PRES NEWDELHI_LAT NEWDELHI_LON NEWDELHI_GRADE NEWDELHI_WIND NEWDELHI_PRES NEWDELHI_CI NEWDELHI_DP NEWDELHI_POCI REUNION_LAT REUNION_LON REUNION_TYPE REUNION_WIND REUNION_PRES REUNION_TNUM REUNION_CI REUNION_RMW REUNION_R34_NE REUNION_R34_SE REUNION_R34_SW REUNION_R34_NW REUNION_R50_NE REUNION_R50_SE REUNION_R50_SW REUNION_R50_NW REUNION_R64_NE REUNION_R64_SE REUNION_R64_SW REUNION_R64_NW BOM_LAT BOM_LON BOM_TYPE BOM_WIND BOM_PRES BOM_TNUM BOM_CI BOM_RMW BOM_R34_NE BOM_R34_SE BOM_R34_SW BOM_R34_NW BOM_R50_NE BOM_R50_SE BOM_R50_SW BOM_R50_NW BOM_R64_NE BOM_R64_SE BOM_R64_SW BOM_R64_NW BOM_ROCI BOM_POCI BOM_EYE BOM_POS_METHOD BOM_PRES_METHOD NADI_LAT NADI_LON NADI_CAT NADI_WIND NADI_PRES WELLINGTON_LAT WELLINGTON_LON WELLINGTON_WIND WELLINGTON_PRES DS824_LAT DS824_LON DS824_STAGE DS824_WIND DS824_PRES TD9636_LAT TD9636_LON TD9636_STAGE TD9636_WIND TD9636_PRES TD9635_LAT TD9635_LON TD9635_WIND TD9635_PRES TD9635_ROCI NEUMANN_LAT NEUMANN_LON NEUMANN_CLASS NEUMANN_WIND NEUMANN_PRES MLC_LAT MLC_LON MLC_CLASS MLC_WIND MLC_PRES USA_GUST BOM_GUST BOM_GUST_PER REUNION_GUST REUNION_GUST_PER USA_SEAHGT USA_SEARAD_NE USA_SEARAD_SE USA_SEARAD_SW USA_SEARAD_NW STORM_SPEED STORM_DIR
1944066S17153 1944 18 SP EA NOT_NAMED 1944-03-05 23:00:00 NR -16.9000 152.900 998 bom main 575 575 ______O___O___ -1 -17.0000 153.000 998 -16.8000 152.800 7 4 226
1944066S17153 1944 18 SP EA NOT_NAMED 1944-03-06 00:00:00 TS -16.9477 152.841 main 567 544 ______P__OP___ -1 -17.0275 152.919 -17.0000 152.900 TC 35 998 -16.8417 152.734 7 5 240
1944066S17153 1944 18 SP EA NOT_NAMED 1944-03-06 03:00:00 TS -17.0541 152.624 main 536 513 ______P__PP___ -1 -17.1112 152.677 -17.0996 152.676 TC -16.9668 152.535 7 5 243
1944066S17153 1944 18 SP EA NOT_NAMED 1944-03-06 06:00:00 TS -17.1614 152.407 main 513 490 ______P__PP___ -1 -17.2000 152.441 -17.2026 152.456 TC -17.0917 152.336 7 5 241
1944066S17153 1944 18 SP EA NOT_NAMED 1944-03-06 09:00:00 TS -17.2759 152.197 main 490 482 ______P__PP___ -1 -17.2982 152.214 -17.3127 152.243 TC -17.2167 152.135 7 5 240
1944066S17153 1944 18 SP EA NOT_NAMED 1944-03-06 11:00:00 TS -17.3542 152.059 main 475 467 ______P__PO___ -1 -17.3708 152.070 -17.3919 152.106 TC -17.3000 152.000 7 5 239
1944066S17153 1944 18 SP EA NOT_NAMED 1944-03-06 12:00:00 TS -17.3950 151.991 main 467 444 ______P__PP___ -1 -17.4097 152.001 -17.4336 152.040 TC -17.3417 151.932 7 5 236
1944066S17153 1944 18 SP EA NOT_NAMED 1944-03-06 15:00:00 TS -17.5261 151.796 main 444 413 ______P__PP___ -1 -17.5387 151.805 -17.5691 151.850 TC -17.4704 151.732 7 5 232
1944066S17153 1944 18 SP EA NOT_NAMED 1944-03-06 18:00:00 TS -17.6746 151.618 main 413 398 ______P__PP___ -1 -17.6894 151.631 -17.7228 151.678 TC -17.6116 151.545 7 5 225
1944066S17153 1944 18 SP EA NOT_NAMED 1944-03-06 21:00:00 TS -17.8463 151.465 main 398 375 ______P__PP___ -1 -17.8659 151.482 -17.8985 151.527 TC -17.7746 151.386 7 5 217
1944066S17153 1944 18 SP EA NOT_NAMED 1944-03-06 23:00:00 TS -17.9766 151.380 997 bom main 375 367 ______O__PO___ -1 -18.0000 151.400 997 -18.0298 151.439 TC -17.9000 151.300 7 5 211
1944066S17153 1944 18 SP EA NOT_NAMED 1944-03-07 00:00:00 TS -18.0466 151.342 main 367 344 ______P__OP___ -1 -18.0723 151.364 -18.1000 151.400 TC 35 997 -17.9674 151.262 7 5 203
1944066S17153 1944 18 SP EA NOT_NAMED 1944-03-07 03:00:00 TS -18.2757 151.250 main 344 322 ______P__PP___ -1 -18.3074 151.278 -18.3288 151.301 TC -18.1908 151.172 7 5 196
1944066S17153 1944 18 SP EA NOT_NAMED 1944-03-07 06:00:00 TS -18.5268 151.191 main 322 302 ______P__PP___ -1 -18.5616 151.223 -18.5778 151.232 TC -18.4408 151.118 7 5 189
1944066S17153 1944 18 SP EA NOT_NAMED 1944-03-07 09:00:00 TS -18.7914 151.165 main 302 290 ______P__PP___ -1 -18.8247 151.199 -18.8380 151.198 TC -18.7114 151.097 7 5 0
1944066S17153 1944 18 SP EA NOT_NAMED 1944-03-07 11:00:00 TS -18.9710 151.165 bom main 290 290 ______O__PO___ -1 -19.0000 151.200 -19.0130 151.195 TC -18.9000 151.100 7 5 0
1944066S17153 1944 18 SP EA NOT_NAMED 1944-03-07 12:00:00 TS -19.0606 151.167 main 284 274 ______P__OP___ -1 -19.0837 151.198 -19.1000 151.200 TC -18.9982 151.102 7 5 0
1944066S17153 1944 18 SP EA NOT_NAMED 1944-03-07 15:00:00 TS -19.3303 151.189 main 274 260 ______P__PP___ -1 -19.3350 151.214 -19.3499 151.223 TC -19.3059 151.129 7 5 173
1944066S17153 1944 18 SP EA NOT_NAMED 1944-03-07 18:00:00 TS -19.6014 151.241 main 260 256 ______P__PP___ -1 -19.5858 151.259 -19.5998 151.283 TC -19.6186 151.182 7 6 167
1944066S17153 1944 18 SP EA NOT_NAMED 1944-03-07 21:00:00 TS -19.8675 151.320 main 256 256 ______P__PP___ -1 -19.8351 151.334 -19.8499 151.376 TC -19.9176 151.250 7 6 163
1944066S17153 1944 18 SP EA NOT_NAMED 1944-03-07 23:00:00 TS -20.0389 151.385 996 bom main 259 254 ______O__PO___ -1 -20.0000 151.400 996 4 -20.0166 151.455 TC -20.1000 151.300 7 5 161
1944066S17153 1944 18 SP EA NOT_NAMED 1944-03-08 00:00:00 TS -20.1159 151.411 main 254 248 ______P__OP___ -1 -20.0676 151.417 -20.1000 151.500 TC 35 996 -20.1801 151.317 7 5 160
1944066S17153 1944 18 SP EA NOT_NAMED 1944-03-08 03:00:00 TS -20.3345 151.499 main 248 231 ______P__PP___ -1 -20.2549 151.474 -20.3503 151.651 TC -20.3982 151.371 7 5 157
1944066S17153 1944 18 SP EA NOT_NAMED 1944-03-08 06:00:00 TS -20.5413 151.604 main 231 216 ______P__PP___ -1 -20.4301 151.548 -20.6007 151.827 TC -20.5930 151.437 7 5 152
1944066S17153 1944 18 SP EA NOT_NAMED 1944-03-08 09:00:00 TS -20.7453 151.733 main 216 202 ______P__PP___ -1 -20.6078 151.652 -20.8511 152.023 TC -20.7771 151.525 7 5 148
1944066S17153 1944 18 SP EA NOT_NAMED 1944-03-08 11:00:00 TS -20.8843 151.836 main 202 202 ______P__PO___ -1 -20.7350 151.743 -21.0180 152.163 TC -20.9000 151.600 7 5 145
1944066S17153 1944 18 SP EA NOT_NAMED 1944-03-08 12:00:00 TS -20.9502 151.883 main 199 197 ______P__PP___ -1 -20.8028 151.798 -21.1014 152.236 TC -20.9466 151.616 7 5 144
1944066S17153 1944 18 SP EA NOT_NAMED 1944-03-08 15:00:00 TS -21.1530 152.046 main 189 189 ______P__PP___ -1 -21.0295 151.998 -21.3515 152.464 TC -21.0780 151.675 7 6 141
1944066S17153 1944 18 SP EA NOT_NAMED 1944-03-08 18:00:00 TS -21.3803 152.255 main 197 190 ______P__PP___ -1 -21.3026 152.266 -21.6014 152.703 TC -21.2368 151.796 7 6 139
1944066S17153 1944 18 SP EA NOT_NAMED 1944-03-08 21:00:00 TS -21.6358 152.497 main 201 196 ______P__PP___ -1 -21.6365 152.615 -21.8509 152.949 TC -21.4737 152.039 7 8 138
1944066S17153 1944 18 SP EA NOT_NAMED 1944-03-08 23:00:00 TS -21.8434 152.703 1000 bom main 210 206 ______O__PO___ -1 -21.9000 152.900 1000 -22.0170 153.116 TC -21.7000 152.300 7 9 138
1944066S17153 1944 18 SP EA NOT_NAMED 1944-03-09 00:00:00 TS -21.9600 152.815 main 213 213 ______P__OP___ -1 -22.0454 153.059 -22.1000 153.200 TC 30 1000 -21.8395 152.474 7 13 134
1944066S17153 1944 18 SP EA NOT_NAMED 1944-03-09 03:00:00 NR -22.4383 153.365 main 250 213 ______P___P___ -1 -22.5338 153.603 TC -22.3428 153.127 7 16 132
1944066S17153 1944 18 SP EA NOT_NAMED 1944-03-09 06:00:00 NR -23.0199 154.081 main 216 195 ______P___P___ -1 -23.0916 154.237 TC -22.9482 153.926 7 19 131
1944066S17153 1944 18 SP EA NOT_NAMED 1944-03-09 09:00:00 NR -23.6659 154.877 main 203 203 ______P___P___ -1 -23.7072 154.951 TC -23.6245 154.804 7 20 132
1944066S17153 1944 18 SP EA NOT_NAMED 1944-03-09 11:00:00 NR -24.1220 155.433 main 225 225 ______P___O___ -1 -24.1440 155.466 TC -24.1000 155.400 7 21 132
1944066S17153 1944 18 SP EA NOT_NAMED 1944-03-09 12:00:00 NR -24.3555 155.714 main 241 241 ______P___P___ -1 -24.3690 155.734 TC -24.3421 155.694 7 21 133
1944066S17153 1944 18 SP EA NOT_NAMED 1944-03-09 15:00:00 NR -25.0729 156.566 main 322 322 ______P___P___ -1 -25.0651 156.574 TC -25.0808 156.558 7 21 133
1944066S17153 1944 18 SP EA NOT_NAMED 1944-03-09 18:00:00 NR -25.8086 157.431 main 411 411 ______P___P___ -1 -25.7837 157.459 TC -25.8334 157.403 7 22 133
1944066S17153 1944 18 SP EA NOT_NAMED 1944-03-09 21:00:00 NR -26.5532 158.309 main 496 496 ______P___P___ -1 -26.5132 158.377 TC -26.5932 158.240 7 22 133
1944066S17153 1944 18 SP EA NOT_NAMED 1944-03-09 23:00:00 NR -27.0500 158.900 1004 bom main 538 ______O___O___ -1 -27.0000 159.000 1004 TC -27.1000 158.800 7 22 133

デジタル台風データ・検索

IBTrACS Databaseについて

本データベースは、米国NOAAが公開する1842年以降の世界の熱帯低気圧のベストトラックデータアーカイブInternational Best Track Archive for Climate Stewardship (IBTrACS)を、ウェブで閲覧しやすい形式に変換したものです。

最終更新日:2021-10-21